Time;durP1;ratioP1;P1;durP2;ratioP2;P2;SDS_P1;SDS_P2;PMS_P1;PMS_P2;Temp;Humidity;BMP_temperature;BMP_pressure;BME280_temperature;BME280_humidity;BME280_pressure;Samples;Min_cycle;Max_cycle;Signal;HPM_P1;HPM_P2
2023/07/09 00:00:16;;;;;;;5.32;2.40;;;;;;;;;;5043194;28;20073;-60
2023/07/09 00:02:41;;;;;;;5.65;2.65;;;;;;;;;;5057281;28;20040;-59
2023/07/09 00:05:09;;;;;;;3.83;2.10;;;;;;;;;;5063992;28;20033;-60
2023/07/09 00:07:35;;;;;;;5.88;2.10;;;;;;;;;;5045743;28;20105;-60
2023/07/09 00:10:01;;;;;;;5.07;2.30;;;;;;;;;;5064025;28;20044;-59
2023/07/09 00:12:26;;;;;;;5.95;2.03;;;;;;;;;;5045625;28;20024;-59
2023/07/09 00:14:51;;;;;;;4.60;2.13;;;;;;;;;;5059385;28;20583;-59
2023/07/09 00:17:23;;;;;;;6.07;2.17;;;;;;;;;;5044863;28;20024;-59
2023/07/09 00:19:48;;;;;;;3.22;2.10;;;;;;;;;;5057626;28;20053;-59
2023/07/09 00:22:17;;;;;;;4.27;2.10;;;;;;;;;;5009409;28;20036;-60
2023/07/09 00:24:44;;;;;;;4.38;2.30;;;;;;;;;;5026129;28;20280;-59
2023/07/09 00:27:09;;;;;;;4.80;2.15;;;;;;;;;;5027238;28;20052;-59
2023/07/09 00:29:35;;;;;;;3.50;2.20;;;;;;;;;;5045785;28;20079;-60
2023/07/09 00:32:00;;;;;;;5.30;2.13;;;;;;;;;;5044809;28;20044;-59
2023/07/09 00:34:25;;;;;;;4.53;2.10;;;;;;;;;;5044981;28;20283;-59
2023/07/09 00:36:51;;;;;;;4.03;1.77;;;;;;;;;;5063696;28;21049;-59
2023/07/09 00:39:17;;;;;;;3.53;2.17;;;;;;;;;;5045766;28;20547;-59
2023/07/09 00:41:43;;;;;;;3.20;1.90;;;;;;;;;;5028541;28;20512;-59
2023/07/09 00:44:20;;;;;;;5.78;2.20;;;;;;;;;;5042766;28;20052;-60
2023/07/09 00:46:48;;;;;;;2.95;2.05;;;;;;;;;;5062258;28;20043;-59
2023/07/09 00:49:16;;;;;;;5.28;2.20;;;;;;;;;;5055953;28;20044;-59
2023/07/09 00:51:42;;;;;;;3.15;2.03;;;;;;;;;;5044450;28;20044;-59
2023/07/09 00:54:41;;;;;;;6.63;2.20;;;;;;;;;;5039807;28;20048;-59
2023/07/09 00:57:11;;;;;;;6.57;2.20;;;;;;;;;;5036627;28;20086;-60
2023/07/09 00:59:36;;;;;;;;;;;;;;;;;;5041722;28;20032;-61
2023/07/09 01:02:01;;;;;;;3.17;1.70;;;;;;;;;;5052211;28;20715;-60
2023/07/09 01:04:27;;;;;;;3.55;2.13;;;;;;;;;;5048324;28;20036;-60
2023/07/09 01:06:52;;;;;;;4.15;1.98;;;;;;;;;;5044190;28;20550;-61
2023/07/09 01:09:18;;;;;;;5.53;2.10;;;;;;;;;;5044624;28;20421;-61
2023/07/09 01:11:43;;;;;;;5.28;2.20;;;;;;;;;;5057791;28;20076;-60
2023/07/09 01:14:10;;;;;;;5.47;2.30;;;;;;;;;;5038215;28;20055;-61
2023/07/09 01:16:38;;;;;;;4.90;1.95;;;;;;;;;;5067280;23;20052;-60
2023/07/09 01:19:13;;;;;;;4.63;2.28;;;;;;;;;;5042149;28;20056;-65
2023/07/09 01:21:39;;;;;;;3.40;1.80;;;;;;;;;;5083585;23;20032;-64
2023/07/09 01:24:14;;;;;;;5.22;2.00;;;;;;;;;;5065340;28;20031;-61
2023/07/09 01:26:39;;;;;;;4.07;2.13;;;;;;;;;;5050797;28;20094;-62
2023/07/09 01:29:04;;;;;;;4.57;2.10;;;;;;;;;;5064697;28;20091;-61
2023/07/09 01:31:30;;;;;;;5.23;2.10;;;;;;;;;;5055140;28;20279;-61
2023/07/09 01:33:55;;;;;;;6.93;2.20;;;;;;;;;;5048538;28;20032;-61
2023/07/09 01:36:23;;;;;;;2.90;1.80;;;;;;;;;;5049456;28;20035;-62
2023/07/09 01:38:49;;;;;;;3.80;2.20;;;;;;;;;;5057843;28;20303;-62
2023/07/09 01:41:14;;;;;;;5.38;2.40;;;;;;;;;;5065233;28;20024;-61
2023/07/09 01:43:41;;;;;;;4.90;2.25;;;;;;;;;;5062533;28;20056;-61
2023/07/09 01:46:08;;;;;;;5.45;2.05;;;;;;;;;;5053365;28;20024;-61
2023/07/09 01:48:40;;;;;;;4.88;2.25;;;;;;;;;;5061429;28;20033;-62
2023/07/09 01:51:06;;;;;;;5.30;2.13;;;;;;;;;;5048331;28;20033;-61
2023/07/09 01:53:33;;;;;;;5.97;2.30;;;;;;;;;;5050568;28;20037;-61
2023/07/09 01:55:58;;;;;;;4.22;1.90;;;;;;;;;;5038090;28;20567;-61
2023/07/09 01:58:24;;;;;;;5.22;2.20;;;;;;;;;;5047899;28;20045;-61
2023/07/09 02:00:50;;;;;;;5.13;2.38;;;;;;;;;;5047029;28;20106;-61
2023/07/09 02:03:16;;;;;;;4.55;2.10;;;;;;;;;;5029516;28;20120;-61
2023/07/09 02:05:41;;;;;;;4.20;2.33;;;;;;;;;;5068145;28;20027;-61
2023/07/09 02:08:07;;;;;;;3.67;1.90;;;;;;;;;;5066387;28;20411;-60
2023/07/09 02:10:32;;;;;;;6.17;2.00;;;;;;;;;;5053126;28;20465;-63
2023/07/09 02:12:57;;;;;;;5.90;2.20;;;;;;;;;;5056901;28;20468;-61
2023/07/09 02:15:22;;;;;;;5.33;2.30;;;;;;;;;;5068067;28;20283;-61
2023/07/09 02:17:48;;;;;;;5.00;2.20;;;;;;;;;;5067193;28;20320;-61
2023/07/09 02:20:13;;;;;;;3.92;2.10;;;;;;;;;;5059852;28;20106;-62
2023/07/09 02:22:39;;;;;;;4.72;1.95;;;;;;;;;;5047424;28;20771;-63
2023/07/09 02:25:05;;;;;;;6.20;2.00;;;;;;;;;;5047516;28;20036;-61
2023/07/09 02:27:30;;;;;;;4.60;1.92;;;;;;;;;;5054902;28;20110;-61
2023/07/09 02:29:56;;;;;;;3.78;1.95;;;;;;;;;;5036410;28;20545;-61
2023/07/09 02:32:25;;;;;;;4.77;2.20;;;;;;;;;;5058041;28;20714;-61
2023/07/09 02:34:52;;;;;;;4.00;2.30;;;;;;;;;;5067432;28;20279;-61
2023/07/09 02:37:18;;;;;;;5.18;2.25;;;;;;;;;;5067876;28;20029;-61
2023/07/09 02:39:43;;;;;;;5.45;2.08;;;;;;;;;;5056815;28;20044;-62
2023/07/09 02:42:09;;;;;;;4.13;2.40;;;;;;;;;;5049559;28;20086;-63
2023/07/09 02:44:35;;;;;;;4.38;2.00;;;;;;;;;;5064801;28;20263;-63
2023/07/09 02:47:00;;;;;;;3.07;2.23;;;;;;;;;;5062340;28;20512;-62
2023/07/09 02:49:25;;;;;;;5.13;2.00;;;;;;;;;;5055718;28;20329;-64
2023/07/09 02:51:50;;;;;;;3.97;2.00;;;;;;;;;;5050370;28;20032;-61
2023/07/09 02:54:16;;;;;;;4.47;2.27;;;;;;;;;;5051404;28;20035;-62
2023/07/09 02:56:41;;;;;;;5.67;2.23;;;;;;;;;;5067522;28;20354;-62
2023/07/09 02:59:06;;;;;;;5.13;2.30;;;;;;;;;;5066520;28;20495;-60
2023/07/09 03:01:34;;;;;;;4.35;2.20;;;;;;;;;;5059862;28;20059;-62
2023/07/09 03:03:59;;;;;;;5.03;2.30;;;;;;;;;;5047213;28;20104;-62
2023/07/09 03:06:25;;;;;;;4.60;2.15;;;;;;;;;;5067046;28;20131;-62
2023/07/09 03:08:51;;;;;;;4.78;2.00;;;;;;;;;;5064198;28;20109;-63
2023/07/09 03:11:16;;;;;;;5.05;2.28;;;;;;;;;;5058575;28;20518;-62
2023/07/09 03:13:42;;;;;;;5.20;2.53;;;;;;;;;;5065129;28;20064;-63
2023/07/09 03:16:07;;;;;;;5.10;2.40;;;;;;;;;;5055603;28;20064;-62
2023/07/09 03:18:32;;;;;;;4.17;1.93;;;;;;;;;;5065516;28;20135;-62
2023/07/09 03:20:58;;;;;;;5.77;2.40;;;;;;;;;;5052985;28;20284;-62
2023/07/09 03:23:23;;;;;;;4.80;2.50;;;;;;;;;;5046934;28;20809;-62
2023/07/09 03:25:48;;;;;;;6.30;2.33;;;;;;;;;;5042812;28;20090;-62
2023/07/09 03:28:13;;;;;;;4.63;2.37;;;;;;;;;;5066596;28;20032;-62
2023/07/09 03:30:42;;;;;;;4.05;2.38;;;;;;;;;;5044835;28;20098;-63
2023/07/09 03:33:08;;;;;;;5.30;2.25;;;;;;;;;;5055530;28;20039;-62
2023/07/09 03:35:34;;;;;;;4.05;2.10;;;;;;;;;;5055677;28;20048;-62
2023/07/09 03:37:59;;;;;;;5.90;2.55;;;;;;;;;;5053996;28;20480;-62
2023/07/09 03:40:25;;;;;;;5.80;2.30;;;;;;;;;;5053679;28;20057;-62
2023/07/09 03:42:50;;;;;;;6.50;2.43;;;;;;;;;;5052181;28;20866;-62
2023/07/09 03:45:15;;;;;;;4.80;2.33;;;;;;;;;;5039987;28;20848;-62
2023/07/09 03:47:40;;;;;;;3.90;2.23;;;;;;;;;;5046197;28;20025;-62
2023/07/09 03:50:07;;;;;;;5.80;2.20;;;;;;;;;;5045310;28;20268;-62
2023/07/09 03:52:32;;;;;;;4.50;2.50;;;;;;;;;;5047347;28;20310;-62
2023/07/09 03:54:57;;;;;;;4.37;2.67;;;;;;;;;;5048305;28;20052;-62
2023/07/09 03:57:22;;;;;;;6.03;2.50;;;;;;;;;;5045845;28;20271;-62
2023/07/09 03:59:48;;;;;;;5.43;2.40;;;;;;;;;;5057280;28;20786;-62
2023/07/09 04:02:13;;;;;;;5.97;2.43;;;;;;;;;;5038801;28;20498;-62
2023/07/09 04:04:38;;;;;;;5.87;2.60;;;;;;;;;;5064598;28;20780;-62
2023/07/09 04:07:03;;;;;;;8.27;2.80;;;;;;;;;;5045778;28;20356;-62
2023/07/09 04:09:29;;;;;;;5.70;2.22;;;;;;;;;;5046745;28;20024;-62
2023/07/09 04:11:54;;;;;;;8.95;2.70;;;;;;;;;;5052221;28;20633;-63
2023/07/09 04:14:19;;;;;;;4.70;2.17;;;;;;;;;;5051148;28;20029;-62
2023/07/09 04:16:44;;;;;;;6.00;2.50;;;;;;;;;;5052927;28;20373;-62
2023/07/09 04:19:10;;;;;;;5.80;2.60;;;;;;;;;;5063110;28;20162;-63
2023/07/09 04:21:35;;;;;;;4.47;2.30;;;;;;;;;;5051632;28;20086;-63
2023/07/09 04:24:00;;;;;;;5.87;2.50;;;;;;;;;;5051134;28;20278;-63
2023/07/09 04:26:26;;;;;;;5.20;2.20;;;;;;;;;;5046662;28;20302;-63
2023/07/09 04:28:51;;;;;;;4.68;2.60;;;;;;;;;;5042631;28;20931;-62
2023/07/09 04:31:17;;;;;;;6.50;2.60;;;;;;;;;;5051978;28;20586;-62
2023/07/09 04:33:43;;;;;;;7.53;2.80;;;;;;;;;;5059123;28;20863;-62
2023/07/09 04:36:08;;;;;;;5.32;3.15;;;;;;;;;;5059639;28;20319;-62
2023/07/09 04:38:34;;;;;;;6.93;3.08;;;;;;;;;;5047408;28;20141;-62
2023/07/09 04:40:59;;;;;;;7.40;3.43;;;;;;;;;;5047324;28;20025;-62
2023/07/09 04:43:24;;;;;;;7.00;3.20;;;;;;;;;;5054688;28;20844;-62
2023/07/09 04:45:50;;;;;;;5.13;3.00;;;;;;;;;;5040769;28;20136;-63
2023/07/09 04:48:15;;;;;;;4.93;2.85;;;;;;;;;;5060342;28;20119;-62
2023/07/09 04:50:41;;;;;;;7.33;2.93;;;;;;;;;;5051044;28;20124;-62
2023/07/09 04:53:06;;;;;;;6.10;3.00;;;;;;;;;;5062811;28;20275;-62
2023/07/09 04:55:31;;;;;;;6.50;3.00;;;;;;;;;;5062082;28;20928;-62
2023/07/09 04:57:57;;;;;;;7.30;2.67;;;;;;;;;;5049032;28;20288;-62
2023/07/09 05:00:22;;;;;;;4.78;2.90;;;;;;;;;;5064224;28;20048;-62
2023/07/09 05:02:47;;;;;;;5.53;3.20;;;;;;;;;;5038919;28;20550;-62
2023/07/09 05:05:12;;;;;;;4.90;2.87;;;;;;;;;;5056131;28;20048;-62
2023/07/09 05:07:38;;;;;;;4.43;2.57;;;;;;;;;;5064261;28;20270;-63
2023/07/09 05:10:04;;;;;;;5.55;2.42;;;;;;;;;;5061580;28;20029;-63
2023/07/09 05:12:29;;;;;;;7.68;2.67;;;;;;;;;;5059900;28;20476;-63
2023/07/09 05:14:56;;;;;;;5.80;2.78;;;;;;;;;;5032941;28;20025;-62
2023/07/09 05:17:21;;;;;;;4.60;2.28;;;;;;;;;;5059067;28;20029;-63
2023/07/09 05:19:47;;;;;;;4.47;2.55;;;;;;;;;;5052677;28;20047;-63
2023/07/09 05:22:12;;;;;;;5.20;2.30;;;;;;;;;;5058769;28;20063;-62
2023/07/09 05:24:37;;;;;;;4.47;2.30;;;;;;;;;;5064266;28;20032;-62
2023/07/09 05:27:03;;;;;;;5.03;2.47;;;;;;;;;;5058983;28;20037;-62
2023/07/09 05:29:28;;;;;;;5.07;2.42;;;;;;;;;;5059581;28;20642;-63
2023/07/09 05:31:53;;;;;;;7.00;2.50;;;;;;;;;;5060300;28;20056;-62
2023/07/09 05:34:18;;;;;;;4.53;2.38;;;;;;;;;;5055910;28;20703;-63
2023/07/09 05:36:44;;;;;;;8.98;2.80;;;;;;;;;;5058523;28;20037;-63
2023/07/09 05:39:09;;;;;;;6.00;2.47;;;;;;;;;;5059194;28;20121;-63
2023/07/09 05:41:35;;;;;;;7.27;2.70;;;;;;;;;;5053363;28;20059;-62
2023/07/09 05:44:00;;;;;;;4.95;2.65;;;;;;;;;;5055563;28;20382;-62
2023/07/09 05:46:25;;;;;;;5.67;2.87;;;;;;;;;;5056741;28;20492;-62
2023/07/09 05:48:51;;;;;;;4.78;2.83;;;;;;;;;;5060430;28;20317;-62
2023/07/09 05:51:16;;;;;;;7.03;2.90;;;;;;;;;;5039287;28;20044;-63
2023/07/09 05:53:41;;;;;;;5.30;2.63;;;;;;;;;;5040375;28;20020;-62
2023/07/09 05:56:06;;;;;;;5.90;2.83;;;;;;;;;;5059405;28;20029;-61
2023/07/09 05:58:32;;;;;;;4.13;2.45;;;;;;;;;;5056277;28;20298;-61
2023/07/09 06:00:57;;;;;;;4.72;2.58;;;;;;;;;;5056335;28;20421;-61
2023/07/09 06:03:24;;;;;;;4.00;2.50;;;;;;;;;;5053377;28;20068;-62
2023/07/09 06:05:49;;;;;;;4.80;2.53;;;;;;;;;;5047624;28;20063;-61
2023/07/09 06:08:15;;;;;;;6.38;2.80;;;;;;;;;;5053831;28;20053;-61
2023/07/09 06:10:49;;;;;;;4.25;2.90;;;;;;;;;;5062162;28;20079;-61
2023/07/09 06:13:15;;;;;;;4.85;2.47;;;;;;;;;;5050056;28;20441;-61
2023/07/09 06:15:40;;;;;;;3.33;2.27;;;;;;;;;;5042523;28;20068;-62
2023/07/09 06:18:05;;;;;;;5.80;2.70;;;;;;;;;;5036555;28;20052;-62
2023/07/09 06:20:30;;;;;;;3.80;2.17;;;;;;;;;;5057078;28;20345;-60
2023/07/09 06:22:56;;;;;;;4.47;2.37;;;;;;;;;;5052575;28;20565;-61
2023/07/09 06:25:21;;;;;;;4.10;2.20;;;;;;;;;;5052913;28;20544;-61
2023/07/09 06:27:46;;;;;;;4.77;2.50;;;;;;;;;;5052971;28;20560;-61
2023/07/09 06:30:11;;;;;;;4.20;2.60;;;;;;;;;;5056224;28;20033;-62
2023/07/09 06:32:36;;;;;;;4.60;2.53;;;;;;;;;;5053470;28;20033;-61
2023/07/09 06:35:02;;;;;;;5.17;2.90;;;;;;;;;;5050489;28;20511;-62
2023/07/09 06:37:27;;;;;;;5.72;2.88;;;;;;;;;;5055187;28;20348;-62
2023/07/09 06:39:53;;;;;;;3.90;2.50;;;;;;;;;;5057604;28;20072;-62
2023/07/09 06:42:18;;;;;;;4.63;2.60;;;;;;;;;;5036503;28;20488;-62
2023/07/09 06:44:43;;;;;;;5.05;2.63;;;;;;;;;;5054069;28;20032;-62
2023/07/09 06:47:08;;;;;;;4.37;2.70;;;;;;;;;;5051780;28;20041;-61
2023/07/09 06:49:33;;;;;;;7.37;2.80;;;;;;;;;;5052227;28;20044;-62
2023/07/09 06:51:59;;;;;;;3.50;2.50;;;;;;;;;;5052331;28;20366;-64
2023/07/09 06:54:24;;;;;;;5.00;2.50;;;;;;;;;;5055876;28;20377;-61
2023/07/09 06:56:50;;;;;;;4.88;2.50;;;;;;;;;;5052398;28;20101;-62
2023/07/09 06:59:15;;;;;;;4.63;2.27;;;;;;;;;;5051697;28;20054;-62
2023/07/09 07:01:41;;;;;;;5.35;2.40;;;;;;;;;;5052625;28;20036;-62
2023/07/09 07:04:06;;;;;;;4.50;2.60;;;;;;;;;;5053878;28;20511;-61
2023/07/09 07:06:31;;;;;;;4.35;2.80;;;;;;;;;;5049403;28;20441;-62
2023/07/09 07:08:56;;;;;;;5.17;2.50;;;;;;;;;;5036088;28;20083;-62
2023/07/09 07:11:22;;;;;;;3.47;2.33;;;;;;;;;;5054783;28;20283;-62
2023/07/09 07:13:51;;;;;;;5.28;2.53;;;;;;;;;;5040081;28;20056;-62
2023/07/09 07:16:16;;;;;;;3.97;2.35;;;;;;;;;;5052981;28;20064;-62
2023/07/09 07:18:41;;;;;;;5.95;2.67;;;;;;;;;;5051544;28;20528;-62
2023/07/09 07:21:07;;;;;;;4.83;2.37;;;;;;;;;;5056428;28;20043;-62
2023/07/09 07:23:32;;;;;;;4.45;2.42;;;;;;;;;;5033126;28;20825;-62
2023/07/09 07:25:57;;;;;;;5.07;2.70;;;;;;;;;;5033368;28;20043;-62
2023/07/09 07:28:22;;;;;;;6.03;2.83;;;;;;;;;;5048334;28;20697;-62
2023/07/09 07:30:57;;;;;;;4.40;2.43;;;;;;;;;;5027793;28;20043;-61
2023/07/09 07:33:22;;;;;;;3.47;2.17;;;;;;;;;;5048354;28;20348;-62
2023/07/09 07:35:47;;;;;;;4.03;2.63;;;;;;;;;;5047981;28;20021;-62
2023/07/09 07:38:13;;;;;;;4.63;2.30;;;;;;;;;;5048578;28;20678;-62
2023/07/09 07:40:38;;;;;;;3.97;2.30;;;;;;;;;;5048596;28;20391;-62
2023/07/09 07:43:03;;;;;;;4.33;2.70;;;;;;;;;;5051543;28;20295;-62
2023/07/09 07:45:28;;;;;;;4.60;2.37;;;;;;;;;;5034071;28;20428;-62
2023/07/09 07:47:54;;;;;;;4.43;2.40;;;;;;;;;;5050718;28;20279;-61
2023/07/09 07:50:19;;;;;;;5.43;2.30;;;;;;;;;;5034057;28;20664;-62
2023/07/09 07:52:45;;;;;;;4.43;2.65;;;;;;;;;;5051360;28;20508;-62
2023/07/09 07:55:10;;;;;;;4.60;2.53;;;;;;;;;;5051646;28;20009;-62
2023/07/09 07:57:35;;;;;;;3.83;2.37;;;;;;;;;;5040439;28;20021;-62
2023/07/09 08:00:00;;;;;;;4.82;2.20;;;;;;;;;;5053513;28;20323;-62
2023/07/09 08:02:26;;;;;;;3.57;2.30;;;;;;;;;;5053091;28;20040;-61
2023/07/09 08:04:51;;;;;;;3.55;2.28;;;;;;;;;;5050203;28;20024;-62
2023/07/09 08:07:17;;;;;;;4.23;2.63;;;;;;;;;;5052143;28;20021;-62
2023/07/09 08:09:42;;;;;;;3.53;2.60;;;;;;;;;;5053417;28;20355;-62
2023/07/09 08:12:11;;;;;;;4.57;2.50;;;;;;;;;;5050842;28;20424;-61
2023/07/09 08:14:36;;;;;;;5.18;2.40;;;;;;;;;;5034252;28;20344;-61
2023/07/09 08:17:02;;;;;;;4.70;2.80;;;;;;;;;;5035971;28;20021;-61
2023/07/09 08:19:27;;;;;;;6.03;2.30;;;;;;;;;;5052784;28;20114;-62
2023/07/09 08:21:52;;;;;;;4.00;2.22;;;;;;;;;;5052616;28;20056;-61
2023/07/09 08:24:18;;;;;;;3.63;2.20;;;;;;;;;;5034092;28;20206;-61
2023/07/09 08:26:43;;;;;;;4.22;2.60;;;;;;;;;;5051320;28;20109;-61
2023/07/09 08:29:08;;;;;;;3.83;2.53;;;;;;;;;;5051249;28;20469;-61
2023/07/09 08:31:33;;;;;;;3.63;2.37;;;;;;;;;;5051870;28;20039;-61
2023/07/09 08:33:58;;;;;;;4.13;2.60;;;;;;;;;;5048749;28;20017;-62
2023/07/09 08:36:24;;;;;;;5.37;2.73;;;;;;;;;;5050910;28;20638;-62
2023/07/09 08:38:49;;;;;;;4.10;2.40;;;;;;;;;;5049936;28;20443;-60
2023/07/09 08:41:17;;;;;;;4.00;2.23;;;;;;;;;;5048727;28;20017;-62
2023/07/09 08:43:48;;;;;;;5.93;2.35;;;;;;;;;;5053192;28;20289;-62
2023/07/09 08:46:17;;;;;;;4.70;2.60;;;;;;;;;;5061778;28;20308;-62
2023/07/09 08:48:43;;;;;;;6.32;2.83;;;;;;;;;;5054800;28;20112;-62
2023/07/09 08:51:10;;;;;;;4.18;2.50;;;;;;;;;;5035694;28;20174;-63
2023/07/09 08:53:54;;;;;;;3.65;2.60;;;;;;;;;;5053455;28;20501;-62
2023/07/09 08:56:19;;;;;;;3.75;2.35;;;;;;;;;;5039154;28;20057;-61
2023/07/09 08:58:45;;;;;;;4.30;2.50;;;;;;;;;;5045249;28;20127;-62
2023/07/09 09:01:20;;;;;;;5.00;2.72;;;;;;;;;;5015897;28;20280;-62
2023/07/09 09:03:45;;;;;;;4.68;2.67;;;;;;;;;;5036445;28;20045;-62
2023/07/09 09:06:11;;;;;;;4.43;2.37;;;;;;;;;;5045785;28;20504;-61
2023/07/09 09:08:40;;;;;;;4.38;2.47;;;;;;;;;;5052811;28;20313;-62
2023/07/09 09:11:14;;;;;;;4.47;2.88;;;;;;;;;;5065432;28;20029;-62
2023/07/09 09:13:40;;;;;;;3.33;2.25;;;;;;;;;;5062374;28;20484;-62
2023/07/09 09:16:09;;;;;;;4.45;2.58;;;;;;;;;;5056666;28;20043;-61
2023/07/09 09:18:37;;;;;;;4.10;2.50;;;;;;;;;;5041114;28;20527;-62
2023/07/09 09:21:13;;;;;;;4.20;2.47;;;;;;;;;;5037036;28;20110;-61
2023/07/09 09:23:39;;;;;;;3.85;2.40;;;;;;;;;;5032965;28;20031;-62
2023/07/09 09:26:05;;;;;;;3.97;2.50;;;;;;;;;;5045445;28;20029;-61
2023/07/09 09:28:34;;;;;;;5.25;2.65;;;;;;;;;;5034301;28;20029;-62
2023/07/09 09:31:00;;;;;;;4.03;2.97;;;;;;;;;;5063442;28;20029;-62
2023/07/09 09:33:25;;;;;;;3.83;2.60;;;;;;;;;;5052059;28;20438;-62
2023/07/09 09:36:00;;;;;;;5.23;2.53;;;;;;;;;;5056150;28;20270;-62
2023/07/09 09:38:25;;;;;;;3.83;2.60;;;;;;;;;;5049718;28;20024;-62
2023/07/09 09:40:50;;;;;;;3.57;2.60;;;;;;;;;;5068360;28;20040;-62
2023/07/09 09:43:19;;;;;;;3.58;2.33;;;;;;;;;;5063450;28;20284;-61
2023/07/09 09:45:45;;;;;;;10.52;2.55;;;;;;;;;;5050323;28;20024;-62
2023/07/09 09:48:16;;;;;;;5.00;2.65;;;;;;;;;;5060970;28;20033;-61
2023/07/09 09:50:41;;;;;;;4.40;2.90;;;;;;;;;;5062587;28;20174;-61
2023/07/09 09:53:07;;;;;;;2.85;2.35;;;;;;;;;;5035016;28;20111;-61
2023/07/09 09:55:33;;;;;;;4.07;2.63;;;;;;;;;;5038801;28;20397;-62
2023/07/09 09:57:58;;;;;;;2.70;2.40;;;;;;;;;;5033484;28;20444;-62
2023/07/09 10:00:28;;;;;;;3.60;2.30;;;;;;;;;;5049661;28;20044;-62
2023/07/09 10:02:53;;;;;;;;;;;;;;;;;;5052010;28;20302;-61
2023/07/09 10:05:21;;;;;;;4.85;2.60;;;;;;;;;;5056059;28;19912;-62
2023/07/09 10:07:59;;;;;;;4.43;2.67;;;;;;;;;;5052909;28;20035;-61
2023/07/09 10:10:25;;;;;;;3.38;2.45;;;;;;;;;;5051495;28;20043;-61
2023/07/09 10:12:54;;;;;;;4.57;2.50;;;;;;;;;;5048067;28;20013;-61
2023/07/09 10:15:29;;;;;;;5.35;2.90;;;;;;;;;;5057228;28;20271;-61
2023/07/09 10:17:55;;;;;;;3.80;2.50;;;;;;;;;;5055933;28;20013;-61
2023/07/09 10:20:35;;;;;;;3.77;2.53;;;;;;;;;;5050819;28;20095;-62
2023/07/09 10:23:20;;;;;;;3.70;2.50;;;;;;;;;;5058353;28;20036;-61
2023/07/09 10:25:51;;;;;;;4.03;2.80;;;;;;;;;;5037371;28;20160;-63
2023/07/09 10:28:28;;;;;;;5.95;2.75;;;;;;;;;;5065400;28;20043;-62
2023/07/09 10:31:12;;;;;;;3.38;2.38;;;;;;;;;;5050321;28;20048;-62
2023/07/09 10:33:38;;;;;;;3.60;2.67;;;;;;;;;;5060051;28;20036;-63
2023/07/09 10:36:23;;;;;;;3.27;2.50;;;;;;;;;;5056336;28;20136;-61
2023/07/09 10:38:55;;;;;;;3.97;2.75;;;;;;;;;;5060801;28;20139;-62
2023/07/09 10:41:20;;;;;;;4.65;3.25;;;;;;;;;;5054360;28;20063;-62
2023/07/09 10:43:47;;;;;;;3.50;2.60;;;;;;;;;;5049777;28;20202;-61
2023/07/09 10:46:14;;;;;;;4.00;2.83;;;;;;;;;;5055645;28;20067;-62
2023/07/09 10:48:46;;;;;;;5.35;2.80;;;;;;;;;;5045105;28;20025;-63
2023/07/09 10:51:27;;;;;;;3.97;2.65;;;;;;;;;;5045075;28;20033;-62
2023/07/09 10:53:56;;;;;;;4.43;2.75;;;;;;;;;;5036273;28;20032;-62
2023/07/09 10:56:22;;;;;;;3.95;2.67;;;;;;;;;;5050211;28;20031;-62
2023/07/09 10:58:58;;;;;;;3.13;2.50;;;;;;;;;;5040955;28;20143;-62
2023/07/09 11:01:31;;;;;;;3.15;2.15;;;;;;;;;;5054532;28;20016;-62
2023/07/09 11:03:59;;;;;;;4.57;2.50;;;;;;;;;;5053152;28;20031;-62
2023/07/09 11:06:27;;;;;;;4.55;2.60;;;;;;;;;;5056979;28;20036;-62
2023/07/09 11:08:52;;;;;;;3.75;2.60;;;;;;;;;;5037025;28;20119;-61
2023/07/09 11:11:24;;;;;;;4.95;2.65;;;;;;;;;;5046847;28;20468;-62
2023/07/09 11:13:54;;;;;;;4.13;2.63;;;;;;;;;;5063236;28;20021;-62
2023/07/09 11:16:27;;;;;;;3.13;2.17;;;;;;;;;;5042600;28;20434;-62
2023/07/09 11:18:54;;;;;;;3.50;2.33;;;;;;;;;;5028152;28;20055;-62
2023/07/09 11:21:19;;;;;;;4.88;2.65;;;;;;;;;;5050145;28;20033;-61
2023/07/09 11:23:55;;;;;;;3.38;2.28;;;;;;;;;;5045621;28;20087;-62
2023/07/09 11:26:24;;;;;;;6.75;2.53;;;;;;;;;;5051198;28;20063;-61
2023/07/09 11:29:02;;;;;;;4.03;2.42;;;;;;;;;;5063888;28;20107;-61
2023/07/09 11:31:47;;;;;;;5.72;2.30;;;;;;;;;;5044189;28;20036;-61
2023/07/09 11:34:12;;;;;;;4.03;2.45;;;;;;;;;;5028816;28;20031;-63
2023/07/09 11:36:46;;;;;;;4.87;2.17;;;;;;;;;;5055307;28;20517;-62
2023/07/09 11:39:27;;;;;;;4.18;2.25;;;;;;;;;;5058211;28;20033;-61
2023/07/09 11:41:52;;;;;;;3.28;2.40;;;;;;;;;;5055073;28;20055;-62
2023/07/09 11:44:18;;;;;;;3.10;2.10;;;;;;;;;;5052087;28;20052;-62
2023/07/09 11:47:04;;;;;;;3.75;2.20;;;;;;;;;;5052325;28;20029;-62
2023/07/09 11:49:34;;;;;;;3.17;2.10;;;;;;;;;;5053219;28;20036;-62
2023/07/09 11:52:00;;;;;;;3.50;2.40;;;;;;;;;;5046624;28;20012;-62
2023/07/09 11:54:25;;;;;;;3.97;2.33;;;;;;;;;;5038674;28;20016;-64
2023/07/09 11:56:57;;;;;;;3.40;2.30;;;;;;;;;;5058524;28;20384;-63
2023/07/09 11:59:22;;;;;;;4.15;1.92;;;;;;;;;;5045320;28;20020;-62
2023/07/09 12:01:48;;;;;;;3.90;2.38;;;;;;;;;;5051549;28;20017;-62
2023/07/09 12:04:17;;;;;;;2.95;2.10;;;;;;;;;;5027665;28;20021;-62
2023/07/09 12:06:42;;;;;;;5.22;2.40;;;;;;;;;;5045983;28;20030;-62
2023/07/09 12:09:17;;;;;;;3.53;2.33;;;;;;;;;;5028072;28;20028;-62
2023/07/09 12:11:47;;;;;;;4.30;2.47;;;;;;;;;;5046456;28;20032;-62
2023/07/09 12:14:13;;;;;;;3.47;2.30;;;;;;;;;;5065305;28;20398;-62
2023/07/09 12:16:39;;;;;;;3.92;2.53;;;;;;;;;;5053359;28;20416;-62
2023/07/09 12:19:04;;;;;;;3.72;2.60;;;;;;;;;;5045357;28;20135;-61
2023/07/09 12:21:29;;;;;;;3.33;2.20;;;;;;;;;;5045897;28;20025;-62
2023/07/09 12:23:55;;;;;;;3.15;2.30;;;;;;;;;;5045779;28;20317;-62
2023/07/09 12:26:20;;;;;;;3.28;2.28;;;;;;;;;;5043935;28;20044;-62
2023/07/09 12:28:52;;;;;;;4.73;2.50;;;;;;;;;;5047068;28;20086;-60
2023/07/09 12:31:18;;;;;;;4.90;2.53;;;;;;;;;;5046931;28;20758;-62
2023/07/09 12:33:47;;;;;;;3.10;2.25;;;;;;;;;;5065830;28;21035;-63
2023/07/09 12:36:12;;;;;;;3.85;2.15;;;;;;;;;;5060747;28;20029;-62
2023/07/09 12:38:48;;;;;;;4.50;2.50;;;;;;;;;;5027594;28;20052;-62
2023/07/09 12:41:21;;;;;;;4.35;2.47;;;;;;;;;;5045372;28;20041;-62
2023/07/09 12:43:47;;;;;;;7.53;2.60;;;;;;;;;;5054819;28;20024;-62
2023/07/09 12:46:12;;;;;;;4.15;2.38;;;;;;;;;;5041333;28;20045;-62
2023/07/09 12:48:37;;;;;;;3.07;2.00;;;;;;;;;;5045663;28;20033;-62
2023/07/09 12:51:05;;;;;;;4.60;2.40;;;;;;;;;;5055235;28;20654;-62
2023/07/09 12:53:31;;;;;;;7.15;2.35;;;;;;;;;;5027689;28;20033;-62
2023/07/09 12:55:57;;;;;;;4.43;2.33;;;;;;;;;;5055881;28;20423;-62
2023/07/09 12:58:28;;;;;;;3.63;2.17;;;;;;;;;;5047037;28;20401;-62
2023/07/09 13:00:54;;;;;;;3.38;2.20;;;;;;;;;;5060084;28;20049;-63
2023/07/09 13:03:21;;;;;;;4.18;2.10;;;;;;;;;;5065139;28;20029;-62
2023/07/09 13:05:55;;;;;;;3.75;2.30;;;;;;;;;;5056328;28;20462;-61
2023/07/09 13:08:20;;;;;;;4.75;2.08;;;;;;;;;;5045470;28;20515;-61
2023/07/09 13:10:50;;;;;;;3.17;2.33;;;;;;;;;;5047857;28;20111;-61
2023/07/09 13:13:15;;;;;;;;;;;;;;;;;;5060557;28;20049;-62
2023/07/09 13:15:42;;;;;;;4.40;2.20;;;;;;;;;;5068125;28;19948;-61
2023/07/09 13:18:08;;;;;;;6.05;2.38;;;;;;;;;;5059951;28;20401;-62
2023/07/09 13:20:35;;;;;;;5.10;2.33;;;;;;;;;;5057303;28;20045;-64
2023/07/09 13:23:00;;;;;;;5.45;2.50;;;;;;;;;;5043237;28;20420;-65
2023/07/09 13:25:26;;;;;;;3.90;2.30;;;;;;;;;;5053797;28;20504;-64
2023/07/09 13:27:51;;;;;;;4.82;2.30;;;;;;;;;;5055196;28;20043;-64
2023/07/09 13:30:18;;;;;;;3.73;2.27;;;;;;;;;;5054097;28;20037;-66
2023/07/09 13:32:44;;;;;;;4.80;2.28;;;;;;;;;;5034952;28;20033;-62
2023/07/09 13:35:13;;;;;;;3.33;2.35;;;;;;;;;;5039782;28;20408;-65
2023/07/09 13:37:38;;;;;;;4.63;2.20;;;;;;;;;;5019961;28;20504;-63
2023/07/09 13:40:03;;;;;;;5.10;2.53;;;;;;;;;;5053153;28;20703;-63
2023/07/09 13:42:29;;;;;;;5.10;2.30;;;;;;;;;;5053276;28;20040;-62
2023/07/09 13:44:55;;;;;;;3.77;2.23;;;;;;;;;;5035490;28;20037;-64
2023/07/09 13:47:21;;;;;;;4.03;2.28;;;;;;;;;;5041551;28;20036;-63
2023/07/09 13:49:46;;;;;;;2.90;2.10;;;;;;;;;;5051396;28;20066;-63
2023/07/09 13:52:16;;;;;;;3.60;1.98;;;;;;;;;;5053609;28;20362;-64
2023/07/09 13:54:41;;;;;;;3.30;1.98;;;;;;;;;;5052314;28;20066;-63
2023/07/09 13:57:09;;;;;;;4.38;2.00;;;;;;;;;;5039439;28;20036;-63
2023/07/09 13:59:34;;;;;;;2.90;1.90;;;;;;;;;;5039496;28;20601;-62
2023/07/09 14:02:00;;;;;;;3.77;2.30;;;;;;;;;;5052457;28;20033;-62
2023/07/09 14:04:25;;;;;;;3.75;2.20;;;;;;;;;;5051312;28;20048;-62
2023/07/09 14:06:51;;;;;;;3.90;2.03;;;;;;;;;;5036591;28;20028;-63
2023/07/09 14:09:16;;;;;;;4.07;2.03;;;;;;;;;;5034313;28;20122;-62
2023/07/09 14:11:43;;;;;;;3.28;1.90;;;;;;;;;;5034938;28;20501;-63
2023/07/09 14:14:18;;;;;;;3.95;1.90;;;;;;;;;;5053062;28;20516;-63
2023/07/09 14:16:44;;;;;;;3.15;1.63;;;;;;;;;;5054591;28;20033;-63
2023/07/09 14:19:13;;;;;;;3.70;2.00;;;;;;;;;;5035279;28;20125;-62
2023/07/09 14:21:38;;;;;;;3.38;2.05;;;;;;;;;;5032399;28;20045;-63
2023/07/09 14:24:08;;;;;;;3.33;2.07;;;;;;;;;;5034450;28;20033;-63
2023/07/09 14:26:33;;;;;;;3.70;2.10;;;;;;;;;;5037499;28;20799;-63
2023/07/09 14:28:59;;;;;;;3.00;1.80;;;;;;;;;;5032852;28;20048;-63
2023/07/09 14:31:26;;;;;;;3.88;1.90;;;;;;;;;;5049003;28;20028;-63
2023/07/09 14:33:51;;;;;;;3.13;1.85;;;;;;;;;;5049321;28;20465;-64
2023/07/09 14:36:16;;;;;;;2.80;1.80;;;;;;;;;;5050746;28;20025;-62
2023/07/09 14:38:41;;;;;;;2.90;1.70;;;;;;;;;;5030880;28;20105;-64
2023/07/09 14:41:25;;;;;;;2.90;1.50;;;;;;;;;;5049501;28;20681;-64